Doric Champion — A8XF5 — position and weather

sailwx.info

Track history (hours):
 
Tides and Currents Weather Stations Pressure Air Temp Water Temp Dewpoint Dewpoint Depression Visibility Wind Speed Wind Dir Waves Ship Positions

Doric Champion

Last reported at 2014-Sep-19 04:25 UTC. Time now 2014-Sep-22 16:19 UTC.
Position N 36°50' W 075°48'.

Length 229 m; draft 14.6 m.

Type: Cargo ship. MMSI: 636014887.

Date/timePositionNaut miles runAvg speedWind from/ knotsBaromVisibWave heightAir tempDewpointWater temp
2014-Sep-19 04:25N 36°50' W 075°48'910.2
2014-Sep-19 03:33N 36°56' W 075°57'1110.4
2014-Sep-19 02:30N 36°59' W 076°10'9 9.1
2014-Sep-19 01:32N 36°57' W 076°20'4 0.3
2014-Sep-18 10:13N 36°53' W 076°20'0 0.0
2014-Sep-18 08:31N 36°53' W 076°20'0 0.0
2014-Sep-18 06:28N 36°53' W 076°20'0 0.0
2014-Sep-18 03:31N 36°53' W 076°20'0 0.0
2014-Sep-17 19:28N 36°53' W 076°20'0 0.0
2014-Sep-17 10:07N 36°53' W 076°20'0 0.0
2014-Sep-17 07:04N 36°53' W 076°20'0 0.0
2014-Sep-17 06:22N 36°53' W 076°20'0 0.0
2014-Sep-17 05:10N 36°53' W 076°20'0 0.3
2014-Sep-17 04:33N 36°53' W 076°20'7 6.9
2014-Sep-17 03:33N 36°60' W 076°18'1010.2
2014-Sep-17 02:32N 36°58' W 076°06'2 0.3
2014-Sep-16 19:07N 36°58' W 076°03'0 0.1
2014-Sep-16 17:28N 36°58' W 076°03'0 0.0
2014-Sep-16 11:19N 36°58' W 076°03'0 0.1
2014-Sep-16 08:18N 36°58' W 076°03'0 0.0
2014-Sep-16 07:28N 36°58' W 076°03'0 0.0
2014-Sep-16 06:09N 36°58' W 076°03'0 0.0
2014-Sep-16 05:13N 36°58' W 076°03'0 0.1
2014-Sep-16 02:28N 36°58' W 076°03'0 0.0
2014-Sep-16 01:34N 36°58' W 076°03'0 0.1
2014-Sep-15 23:28N 36°58' W 076°03'0 0.1
2014-Sep-15 22:30N 36°58' W 076°03'0 0.0
2014-Sep-15 20:15N 36°58' W 076°03'0 0.0
2014-Sep-15 19:18N 36°58' W 076°03'0 0.0
2014-Sep-15 16:31N 36°58' W 076°03'0 0.2
2014-Sep-15 15:34N 36°58' W 076°03'0 0.1
2014-Sep-15 14:22N 36°58' W 076°03'0 0.0
2014-Sep-15 13:21N 36°58' W 076°03'0 0.1
2014-Sep-15 09:06N 36°58' W 076°03'0 0.0
2014-Sep-15 06:21N 36°58' W 076°03'0 0.0
2014-Sep-15 05:33N 36°58' W 076°03'0 0.0
2014-Sep-15 04:12N 36°58' W 076°03'0 0.1
2014-Sep-15 03:30N 36°58' W 076°03'0 0.2
2014-Sep-15 02:27N 36°58' W 076°03'0 0.0
2014-Sep-15 01:30N 36°58' W 076°03'0 0.0
2014-Sep-15 00:27N 36°58' W 076°03'0 0.1
2014-Sep-14 21:24N 36°58' W 076°03'0 0.1
2014-Sep-14 20:21N 36°58' W 076°03'0 0.0
2014-Sep-14 19:06N 36°58' W 076°03'0 0.0
2014-Sep-14 18:33N 36°58' W 076°03'0 0.0
2014-Sep-14 17:30N 36°58' W 076°03'0 0.0
2014-Sep-14 16:30N 36°58' W 076°03'0 0.1
2014-Sep-14 14:21N 36°58' W 076°03'0 0.1
2014-Sep-14 12:33N 36°58' W 076°03'8 8.4
2014-Sep-14 11:32N 36°54' W 075°53'  
Track history (hours):
 
Tides and Currents Weather Stations Pressure Air Temp Water Temp Dewpoint Dewpoint Depression Visibility Wind Speed Wind Dir Waves Ship Positions

Doric Champion

Last reported at 2014-Sep-19 04:25 UTC. Time now 2014-Sep-22 16:19 UTC.
Position N 36°50' W 075°48'.

Length 229 m; draft 14.6 m.

Type: Cargo ship. MMSI: 636014887.

Date/timePositionNaut miles runAvg speedWind from/ knotsBaromVisibWave heightAir tempDewpointWater temp
2014-Sep-19 04:25N 36°50' W 075°48'910.2
2014-Sep-19 03:33N 36°56' W 075°57'1110.4
2014-Sep-19 02:30N 36°59' W 076°10'9 9.1
2014-Sep-19 01:32N 36°57' W 076°20'4 0.3
2014-Sep-18 10:13N 36°53' W 076°20'0 0.0
2014-Sep-18 08:31N 36°53' W 076°20'0 0.0
2014-Sep-18 06:28N 36°53' W 076°20'0 0.0
2014-Sep-18 03:31N 36°53' W 076°20'0 0.0
2014-Sep-17 19:28N 36°53' W 076°20'0 0.0
2014-Sep-17 10:07N 36°53' W 076°20'0 0.0
2014-Sep-17 07:04N 36°53' W 076°20'0 0.0
2014-Sep-17 06:22N 36°53' W 076°20'0 0.0
2014-Sep-17 05:10N 36°53' W 076°20'0 0.3
2014-Sep-17 04:33N 36°53' W 076°20'7 6.9
2014-Sep-17 03:33N 36°60' W 076°18'1010.2
2014-Sep-17 02:32N 36°58' W 076°06'2 0.3
2014-Sep-16 19:07N 36°58' W 076°03'0 0.1
2014-Sep-16 17:28N 36°58' W 076°03'0 0.0
2014-Sep-16 11:19N 36°58' W 076°03'0 0.1
2014-Sep-16 08:18N 36°58' W 076°03'0 0.0
2014-Sep-16 07:28N 36°58' W 076°03'0 0.0
2014-Sep-16 06:09N 36°58' W 076°03'0 0.0
2014-Sep-16 05:13N 36°58' W 076°03'0 0.1
2014-Sep-16 02:28N 36°58' W 076°03'0 0.0
2014-Sep-16 01:34N 36°58' W 076°03'0 0.1
2014-Sep-15 23:28N 36°58' W 076°03'0 0.1
2014-Sep-15 22:30N 36°58' W 076°03'0 0.0
2014-Sep-15 20:15N 36°58' W 076°03'0 0.0
2014-Sep-15 19:18N 36°58' W 076°03'0 0.0
2014-Sep-15 16:31N 36°58' W 076°03'0 0.2
2014-Sep-15 15:34N 36°58' W 076°03'0 0.1
2014-Sep-15 14:22N 36°58' W 076°03'0 0.0
2014-Sep-15 13:21N 36°58' W 076°03'0 0.1
2014-Sep-15 09:06N 36°58' W 076°03'0 0.0
2014-Sep-15 06:21N 36°58' W 076°03'0 0.0
2014-Sep-15 05:33N 36°58' W 076°03'0 0.0
2014-Sep-15 04:12N 36°58' W 076°03'0 0.1
2014-Sep-15 03:30N 36°58' W 076°03'0 0.2
2014-Sep-15 02:27N 36°58' W 076°03'0 0.0
2014-Sep-15 01:30N 36°58' W 076°03'0 0.0
2014-Sep-15 00:27N 36°58' W 076°03'0 0.1
2014-Sep-14 21:24N 36°58' W 076°03'0 0.1
2014-Sep-14 20:21N 36°58' W 076°03'0 0.0
2014-Sep-14 19:06N 36°58' W 076°03'0 0.0
2014-Sep-14 18:33N 36°58' W 076°03'0 0.0
2014-Sep-14 17:30N 36°58' W 076°03'0 0.0
2014-Sep-14 16:30N 36°58' W 076°03'0 0.1
2014-Sep-14 14:21N 36°58' W 076°03'0 0.1
2014-Sep-14 12:33N 36°58' W 076°03'8 8.4
2014-Sep-14 11:32N 36°54' W 075°53'  

Dump ship's entire track history